Cartwright, Cartwright Airport (CYCA)

NameCartwright Airport
CityCartwright
CountryCanada
ICAOCYCA
IATAYRF
Altitude13 m
CoordinatesGoogle Map
Live Air TrafficLiveATC.net
METARCYCA 231100Z AUTO 29011G16KT 9SM CLR M22/M28 A2987 RMK SLP119
2019-02-23 11:00:00 Wind: West (290°) 5.66 m/s - Visibility: 14484.06 m - Temperature: -22 °C - Dew point: -28 °C - Humidity: 58.4% - Pressure: 1011.51 hPa

Sorry, no flights used the airport in this database.